Terminal Aerodrome Forecast
Issued by NWS

Home | Current Version | Previous Version | Text Only | Print | Product List | Glossary On
Versions: 1 2 3 4 5 6 7 8 9 10 11 12 13 14 15 16 17
000
FTUS45 KGJT 221143
TAFMTJ
TAF
KMTJ 221143Z 2212/2312 02009KT P6SM FEW120 SCT250
     FM221500 21018G31KT P6SM SCT200 WS020/23035KT
     FM221700 22017G31KT P6SM BKN130
     FM230100 23015G26KT P6SM VCSH SCT100
     FM230500 18014G24KT P6SM VCSH FEW100
     FM230900 20016G27KT P6SM SCT100=

USA.gov is the U.S. government's official web portal to all federal, state and local government web resources and services.